sensor_id;sensor_type;location;lat;lon;timestamp;pressure;altitude;pressure_sealevel;temperature;humidity
37206;BME280;23099;42.636;23.198;2022-08-19T00:01:18;91934.50;;;18.45;74.79
37206;BME280;23099;42.636;23.198;2022-08-19T00:03:45;91931.06;;;18.41;75.10
37206;BME280;23099;42.636;23.198;2022-08-19T00:06:14;91932.47;;;18.49;75.19
37206;BME280;23099;42.636;23.198;2022-08-19T00:08:41;91916.41;;;18.38;75.05
37206;BME280;23099;42.636;23.198;2022-08-19T00:11:09;91924.72;;;18.51;74.79
37206;BME280;23099;42.636;23.198;2022-08-19T00:13:36;91934.41;;;18.48;75.01
37206;BME280;23099;42.636;23.198;2022-08-19T00:16:04;91937.53;;;18.47;75.80
37206;BME280;23099;42.636;23.198;2022-08-19T00:18:32;91949.06;;;18.51;74.71
37206;BME280;23099;42.636;23.198;2022-08-19T00:20:59;91958.38;;;18.50;74.70
37206;BME280;23099;42.636;23.198;2022-08-19T00:23:27;91959.91;;;18.51;74.81
37206;BME280;23099;42.636;23.198;2022-08-19T00:25:55;91949.66;;;18.38;74.51
37206;BME280;23099;42.636;23.198;2022-08-19T00:28:22;91957.72;;;18.42;74.83
37206;BME280;23099;42.636;23.198;2022-08-19T00:30:49;91946.94;;;18.38;74.70
37206;BME280;23099;42.636;23.198;2022-08-19T00:33:17;91947.31;;;18.41;74.88
37206;BME280;23099;42.636;23.198;2022-08-19T00:35:43;91949.97;;;18.44;75.75
37206;BME280;23099;42.636;23.198;2022-08-19T00:38:10;91936.56;;;18.33;75.40
37206;BME280;23099;42.636;23.198;2022-08-19T00:40:39;91941.22;;;18.33;75.29
37206;BME280;23099;42.636;23.198;2022-08-19T00:43:07;91937.06;;;18.28;75.44
37206;BME280;23099;42.636;23.198;2022-08-19T00:45:34;91940.16;;;18.27;75.75
37206;BME280;23099;42.636;23.198;2022-08-19T00:48:01;91938.53;;;18.33;75.92
37206;BME280;23099;42.636;23.198;2022-08-19T00:50:29;91935.53;;;18.27;75.74
37206;BME280;23099;42.636;23.198;2022-08-19T00:52:58;91935.53;;;18.27;75.27
37206;BME280;23099;42.636;23.198;2022-08-19T00:55:26;91935.16;;;18.25;75.38
37206;BME280;23099;42.636;23.198;2022-08-19T00:57:59;91938.28;;;18.24;75.86
37206;BME280;23099;42.636;23.198;2022-08-19T01:00:29;91932.41;;;18.29;76.14
37206;BME280;23099;42.636;23.198;2022-08-19T01:02:56;91920.63;;;18.16;75.69
37206;BME280;23099;42.636;23.198;2022-08-19T01:05:25;91927.13;;;18.18;76.09
37206;BME280;23099;42.636;23.198;2022-08-19T01:07:54;91937.06;;;18.01;76.18
37206;BME280;23099;42.636;23.198;2022-08-19T01:10:24;91930.53;;;17.99;76.71
37206;BME280;23099;42.636;23.198;2022-08-19T01:12:53;91928.38;;;17.87;76.92
37206;BME280;23099;42.636;23.198;2022-08-19T01:15:22;91924.53;;;17.84;77.08
37206;BME280;23099;42.636;23.198;2022-08-19T01:17:51;91929.38;;;17.70;77.54
37206;BME280;23099;42.636;23.198;2022-08-19T01:20:22;91923.97;;;17.70;77.94
37206;BME280;23099;42.636;23.198;2022-08-19T01:22:52;91915.47;;;17.71;77.29
37206;BME280;23099;42.636;23.198;2022-08-19T01:25:22;91922.66;;;17.81;77.75
37206;BME280;23099;42.636;23.198;2022-08-19T01:27:51;91918.38;;;17.84;76.99
37206;BME280;23099;42.636;23.198;2022-08-19T01:30:21;91925.28;;;17.88;76.92
37206;BME280;23099;42.636;23.198;2022-08-19T01:32:49;91921.34;;;17.93;76.60
37206;BME280;23099;42.636;23.198;2022-08-19T01:35:16;91922.41;;;17.99;77.04
37206;BME280;23099;42.636;23.198;2022-08-19T01:37:46;91919.22;;;18.04;76.17
37206;BME280;23099;42.636;23.198;2022-08-19T01:40:15;91920.47;;;17.99;75.85
37206;BME280;23099;42.636;23.198;2022-08-19T01:42:42;91922.88;;;17.94;75.55
37206;BME280;23099;42.636;23.198;2022-08-19T01:45:09;91919.03;;;17.91;75.40
37206;BME280;23099;42.636;23.198;2022-08-19T01:47:37;91919.75;;;17.95;76.97
37206;BME280;23099;42.636;23.198;2022-08-19T01:50:05;91928.28;;;17.94;76.49
37206;BME280;23099;42.636;23.198;2022-08-19T01:52:34;91916.81;;;17.86;75.77
37206;BME280;23099;42.636;23.198;2022-08-19T01:55:01;91921.44;;;17.86;76.20
37206;BME280;23099;42.636;23.198;2022-08-19T01:57:29;91925.28;;;17.88;76.56
37206;BME280;23099;42.636;23.198;2022-08-19T01:59:56;91918.00;;;17.82;76.47
37206;BME280;23099;42.636;23.198;2022-08-19T02:02:23;91924.34;;;17.72;76.13
37206;BME280;23099;42.636;23.198;2022-08-19T02:04:50;91926.28;;;17.71;77.03
37206;BME280;23099;42.636;23.198;2022-08-19T02:07:19;91922.00;;;17.74;76.57
37206;BME280;23099;42.636;23.198;2022-08-19T02:09:46;91913.22;;;17.62;76.49
37206;BME280;23099;42.636;23.198;2022-08-19T02:12:14;91925.50;;;17.71;77.43
37206;BME280;23099;42.636;23.198;2022-08-19T02:14:43;91930.09;;;17.74;77.55
37206;BME280;23099;42.636;23.198;2022-08-19T02:17:09;91929.50;;;17.59;76.49
37206;BME280;23099;42.636;23.198;2022-08-19T02:19:36;91919.44;;;17.59;77.25
37206;BME280;23099;42.636;23.198;2022-08-19T02:22:03;91923.34;;;17.55;77.21
37206;BME280;23099;42.636;23.198;2022-08-19T02:24:30;91924.16;;;17.52;77.69
37206;BME280;23099;42.636;23.198;2022-08-19T02:26:57;91927.19;;;17.57;77.47
37206;BME280;23099;42.636;23.198;2022-08-19T02:29:24;91922.94;;;17.56;77.30
37206;BME280;23099;42.636;23.198;2022-08-19T02:31:52;91924.09;;;17.59;77.95
37206;BME280;23099;42.636;23.198;2022-08-19T02:34:19;91925.25;;;17.58;77.71
37206;BME280;23099;42.636;23.198;2022-08-19T02:36:46;91912.59;;;17.51;77.85
37206;BME280;23099;42.636;23.198;2022-08-19T02:39:13;91918.31;;;17.57;77.69
37206;BME280;23099;42.636;23.198;2022-08-19T02:41:38;91910.66;;;17.52;77.49
37206;BME280;23099;42.636;23.198;2022-08-19T02:44:06;91908.69;;;17.56;77.35
37206;BME280;23099;42.636;23.198;2022-08-19T02:46:33;91897.88;;;17.56;78.29
37206;BME280;23099;42.636;23.198;2022-08-19T02:49:05;91915.53;;;17.60;77.64
37206;BME280;23099;42.636;23.198;2022-08-19T02:51:35;91906.38;;;17.54;77.25
37206;BME280;23099;42.636;23.198;2022-08-19T02:54:03;91909.88;;;17.51;77.28
37206;BME280;23099;42.636;23.198;2022-08-19T02:56:31;91907.22;;;17.48;77.30
37206;BME280;23099;42.636;23.198;2022-08-19T02:59:00;91911.44;;;17.49;77.45
37206;BME280;23099;42.636;23.198;2022-08-19T03:01:29;91902.69;;;17.41;77.38
37206;BME280;23099;42.636;23.198;2022-08-19T03:03:59;91912.69;;;17.44;77.34
37206;BME280;23099;42.636;23.198;2022-08-19T03:06:28;91905.81;;;17.36;78.10
37206;BME280;23099;42.636;23.198;2022-08-19T03:08:55;91903.44;;;17.42;77.93
37206;BME280;23099;42.636;23.198;2022-08-19T03:11:24;91903.81;;;17.44;77.48
37206;BME280;23099;42.636;23.198;2022-08-19T03:13:52;91892.00;;;17.30;77.72
37206;BME280;23099;42.636;23.198;2022-08-19T03:16:21;91909.31;;;17.33;78.47
37206;BME280;23099;42.636;23.198;2022-08-19T03:18:48;91905.16;;;17.28;78.80
37206;BME280;23099;42.636;23.198;2022-08-19T03:21:17;91912.28;;;17.12;79.59
37206;BME280;23099;42.636;23.198;2022-08-19T03:23:45;91910.78;;;17.07;79.83
37206;BME280;23099;42.636;23.198;2022-08-19T03:26:11;91915.50;;;17.00;80.04
37206;BME280;23099;42.636;23.198;2022-08-19T03:28:40;91917.66;;;16.74;81.18
37206;BME280;23099;42.636;23.198;2022-08-19T03:31:09;91921.50;;;16.77;81.35
37206;BME280;23099;42.636;23.198;2022-08-19T03:33:37;91922.66;;;16.76;81.77
37206;BME280;23099;42.636;23.198;2022-08-19T03:36:08;91923.47;;;16.73;81.63
37206;BME280;23099;42.636;23.198;2022-08-19T03:38:37;91927.59;;;16.84;81.45
37206;BME280;23099;42.636;23.198;2022-08-19T03:41:08;91927.53;;;16.91;81.11
37206;BME280;23099;42.636;23.198;2022-08-19T03:43:36;91931.75;;;16.92;80.51
37206;BME280;23099;42.636;23.198;2022-08-19T03:46:05;91932.41;;;17.04;81.15
37206;BME280;23099;42.636;23.198;2022-08-19T03:48:33;91941.69;;;17.03;80.75
37206;BME280;23099;42.636;23.198;2022-08-19T03:51:00;91942.81;;;17.05;80.22
37206;BME280;23099;42.636;23.198;2022-08-19T03:53:29;91936.38;;;16.95;80.30
37206;BME280;23099;42.636;23.198;2022-08-19T03:55:57;91947.81;;;17.07;80.81
37206;BME280;23099;42.636;23.198;2022-08-19T03:58:26;91952.78;;;17.12;80.38
37206;BME280;23099;42.636;23.198;2022-08-19T04:00:55;91953.19;;;17.10;80.61
37206;BME280;23099;42.636;23.198;2022-08-19T04:03:22;91956.25;;;17.12;79.49
37206;BME280;23099;42.636;23.198;2022-08-19T04:05:50;91953.25;;;17.03;79.64
37206;BME280;23099;42.636;23.198;2022-08-19T04:08:17;91952.91;;;17.01;79.30
37206;BME280;23099;42.636;23.198;2022-08-19T04:10:46;91954.00;;;17.04;79.82
37206;BME280;23099;42.636;23.198;2022-08-19T04:13:13;91957.94;;;16.99;80.18
37206;BME280;23099;42.636;23.198;2022-08-19T04:15:43;91963.69;;;17.01;80.63
37206;BME280;23099;42.636;23.198;2022-08-19T04:18:12;91959.00;;;17.05;79.99
37206;BME280;23099;42.636;23.198;2022-08-19T04:20:42;91963.66;;;17.05;80.57
37206;BME280;23099;42.636;23.198;2022-08-19T04:23:09;91959.78;;;17.06;81.29
37206;BME280;23099;42.636;23.198;2022-08-19T04:25:38;91970.94;;;17.08;81.13
37206;BME280;23099;42.636;23.198;2022-08-19T04:28:06;91960.19;;;17.04;81.59
37206;BME280;23099;42.636;23.198;2022-08-19T04:30:38;91966.44;;;16.98;81.18
37206;BME280;23099;42.636;23.198;2022-08-19T04:33:07;91964.59;;;16.87;81.33
37206;BME280;23099;42.636;23.198;2022-08-19T04:35:38;91961.91;;;16.87;81.56
37206;BME280;23099;42.636;23.198;2022-08-19T04:38:06;91959.88;;;16.95;81.49
37206;BME280;23099;42.636;23.198;2022-08-19T04:40:33;91958.31;;;17.01;82.26
37206;BME280;23099;42.636;23.198;2022-08-19T04:43:18;91957.88;;;17.03;81.51
37206;BME280;23099;42.636;23.198;2022-08-19T04:45:45;91954.88;;;16.97;82.45
37206;BME280;23099;42.636;23.198;2022-08-19T04:48:13;91960.53;;;17.06;82.30
37206;BME280;23099;42.636;23.198;2022-08-19T04:50:42;91958.94;;;17.16;82.46
37206;BME280;23099;42.636;23.198;2022-08-19T04:53:10;91956.16;;;17.19;82.23
37206;BME280;23099;42.636;23.198;2022-08-19T04:55:41;91966.56;;;17.21;82.36
37206;BME280;23099;42.636;23.198;2022-08-19T04:58:07;91965.44;;;17.18;82.00
37206;BME280;23099;42.636;23.198;2022-08-19T05:00:37;91956.88;;;17.27;82.33
37206;BME280;23099;42.636;23.198;2022-08-19T05:03:04;91954.13;;;17.30;82.64
37206;BME280;23099;42.636;23.198;2022-08-19T05:05:33;91969.41;;;17.44;82.74
37206;BME280;23099;42.636;23.198;2022-08-19T05:07:59;91968.94;;;17.53;82.23
37206;BME280;23099;42.636;23.198;2022-08-19T05:10:26;91974.66;;;17.58;81.97
37206;BME280;23099;42.636;23.198;2022-08-19T05:12:53;91962.63;;;17.66;81.88
37206;BME280;23099;42.636;23.198;2022-08-19T05:15:20;91965.19;;;17.77;81.83
37206;BME280;23099;42.636;23.198;2022-08-19T05:17:47;91966.59;;;17.89;81.14
37206;BME280;23099;42.636;23.198;2022-08-19T05:20:27;91968.75;;;18.01;80.81
37206;BME280;23099;42.636;23.198;2022-08-19T05:23:13;91964.75;;;18.09;81.29
37206;BME280;23099;42.636;23.198;2022-08-19T05:25:41;91965.00;;;18.18;81.11
37206;BME280;23099;42.636;23.198;2022-08-19T05:28:08;91967.28;;;18.23;81.35
37206;BME280;23099;42.636;23.198;2022-08-19T05:30:35;91967.50;;;18.32;81.59
37206;BME280;23099;42.636;23.198;2022-08-19T05:33:02;91978.59;;;18.42;81.27
37206;BME280;23099;42.636;23.198;2022-08-19T05:35:28;91974.97;;;18.52;82.01
37206;BME280;23099;42.636;23.198;2022-08-19T05:37:56;91967.16;;;18.61;82.28
37206;BME280;23099;42.636;23.198;2022-08-19T05:40:24;91968.59;;;18.65;81.87
37206;BME280;23099;42.636;23.198;2022-08-19T05:42:50;91967.72;;;18.72;81.55
37206;BME280;23099;42.636;23.198;2022-08-19T05:45:18;91961.13;;;18.73;81.43
37206;BME280;23099;42.636;23.198;2022-08-19T05:47:46;91960.91;;;18.87;81.88
37206;BME280;23099;42.636;23.198;2022-08-19T05:50:13;91965.41;;;18.94;82.00
37206;BME280;23099;42.636;23.198;2022-08-19T05:52:40;91961.06;;;19.00;81.49
37206;BME280;23099;42.636;23.198;2022-08-19T05:55:07;91960.59;;;19.05;81.65
37206;BME280;23099;42.636;23.198;2022-08-19T05:57:36;91955.81;;;19.13;81.59
37206;BME280;23099;42.636;23.198;2022-08-19T06:00:04;91953.31;;;19.22;80.74
37206;BME280;23099;42.636;23.198;2022-08-19T06:02:34;91962.88;;;19.30;81.30
37206;BME280;23099;42.636;23.198;2022-08-19T06:05:00;91967.66;;;19.42;81.89
37206;BME280;23099;42.636;23.198;2022-08-19T06:07:28;91966.38;;;19.50;81.80
37206;BME280;23099;42.636;23.198;2022-08-19T06:09:55;91966.88;;;19.65;79.37
37206;BME280;23099;42.636;23.198;2022-08-19T06:12:22;91957.84;;;19.71;79.96
37206;BME280;23099;42.636;23.198;2022-08-19T06:14:57;91965.75;;;19.82;80.23
37206;BME280;23099;42.636;23.198;2022-08-19T06:17:24;91967.56;;;19.89;78.41
37206;BME280;23099;42.636;23.198;2022-08-19T06:19:51;91970.41;;;20.01;75.65
37206;BME280;23099;42.636;23.198;2022-08-19T06:22:18;91969.06;;;20.09;73.88
37206;BME280;23099;42.636;23.198;2022-08-19T06:24:45;91961.53;;;20.17;71.99
37206;BME280;23099;42.636;23.198;2022-08-19T06:27:11;91970.03;;;20.35;71.20
37206;BME280;23099;42.636;23.198;2022-08-19T06:29:38;91969.44;;;20.48;70.54
37206;BME280;23099;42.636;23.198;2022-08-19T06:32:06;91970.78;;;20.56;70.72
37206;BME280;23099;42.636;23.198;2022-08-19T06:34:33;91972.00;;;20.71;70.91
37206;BME280;23099;42.636;23.198;2022-08-19T06:37:01;91960.28;;;20.74;69.72
37206;BME280;23099;42.636;23.198;2022-08-19T06:39:30;91972.75;;;20.88;66.87
37206;BME280;23099;42.636;23.198;2022-08-19T06:42:00;91964.19;;;21.05;64.94
37206;BME280;23099;42.636;23.198;2022-08-19T06:44:30;91970.88;;;21.17;66.68
37206;BME280;23099;42.636;23.198;2022-08-19T06:47:01;91960.00;;;21.33;66.85
37206;BME280;23099;42.636;23.198;2022-08-19T06:49:30;91963.72;;;21.39;64.63
37206;BME280;23099;42.636;23.198;2022-08-19T06:51:57;91961.56;;;21.47;63.43
37206;BME280;23099;42.636;23.198;2022-08-19T06:54:25;91974.03;;;21.61;64.01
37206;BME280;23099;42.636;23.198;2022-08-19T06:56:53;91973.72;;;21.71;63.71
37206;BME280;23099;42.636;23.198;2022-08-19T06:59:22;91974.63;;;21.81;62.62
37206;BME280;23099;42.636;23.198;2022-08-19T07:01:54;91969.97;;;21.94;63.04
37206;BME280;23099;42.636;23.198;2022-08-19T07:04:23;91983.53;;;22.10;59.84
37206;BME280;23099;42.636;23.198;2022-08-19T07:06:57;91976.28;;;22.20;61.49
37206;BME280;23099;42.636;23.198;2022-08-19T07:09:25;91974.53;;;22.26;61.34
37206;BME280;23099;42.636;23.198;2022-08-19T07:11:53;91975.88;;;22.34;61.03
37206;BME280;23099;42.636;23.198;2022-08-19T07:14:21;91972.38;;;22.46;61.26
37206;BME280;23099;42.636;23.198;2022-08-19T07:16:50;91975.31;;;22.52;62.30
37206;BME280;23099;42.636;23.198;2022-08-19T07:19:18;91975.78;;;22.63;59.85
37206;BME280;23099;42.636;23.198;2022-08-19T07:21:48;91983.09;;;22.79;59.89
37206;BME280;23099;42.636;23.198;2022-08-19T07:24:20;91978.94;;;22.87;56.50
37206;BME280;23099;42.636;23.198;2022-08-19T07:26:50;91983.50;;;23.03;58.30
37206;BME280;23099;42.636;23.198;2022-08-19T07:29:17;91971.38;;;23.16;59.29
37206;BME280;23099;42.636;23.198;2022-08-19T07:31:44;91975.19;;;23.19;59.37
37206;BME280;23099;42.636;23.198;2022-08-19T07:34:11;91975.59;;;23.30;57.62
37206;BME280;23099;42.636;23.198;2022-08-19T07:36:41;91977.53;;;23.42;56.28
37206;BME280;23099;42.636;23.198;2022-08-19T07:39:09;91976.94;;;23.60;57.34
37206;BME280;23099;42.636;23.198;2022-08-19T07:41:37;91976.91;;;23.73;53.41
37206;BME280;23099;42.636;23.198;2022-08-19T07:44:06;91971.97;;;23.80;54.83
37206;BME280;23099;42.636;23.198;2022-08-19T07:46:35;91969.34;;;23.98;56.27
37206;BME280;23099;42.636;23.198;2022-08-19T07:49:04;91976.09;;;24.07;54.74
37206;BME280;23099;42.636;23.198;2022-08-19T07:51:31;91977.97;;;24.19;53.34
37206;BME280;23099;42.636;23.198;2022-08-19T07:53:58;91974.75;;;24.33;52.98
37206;BME280;23099;42.636;23.198;2022-08-19T07:56:25;91975.44;;;24.46;51.79
37206;BME280;23099;42.636;23.198;2022-08-19T07:58:53;91981.00;;;24.64;52.64
37206;BME280;23099;42.636;23.198;2022-08-19T08:01:21;91983.94;;;24.79;52.54
37206;BME280;23099;42.636;23.198;2022-08-19T08:03:49;91974.81;;;24.82;53.76
37206;BME280;23099;42.636;23.198;2022-08-19T08:06:34;91980.50;;;24.97;54.53
37206;BME280;23099;42.636;23.198;2022-08-19T08:09:24;91975.84;;;25.07;53.13
37206;BME280;23099;42.636;23.198;2022-08-19T08:11:54;91975.56;;;25.14;53.79
37206;BME280;23099;42.636;23.198;2022-08-19T08:14:26;91978.59;;;25.25;49.90
37206;BME280;23099;42.636;23.198;2022-08-19T08:16:53;91980.94;;;25.35;48.41
37206;BME280;23099;42.636;23.198;2022-08-19T08:19:21;91972.41;;;25.43;46.73
37206;BME280;23099;42.636;23.198;2022-08-19T08:21:49;91977.16;;;25.51;47.50
37206;BME280;23099;42.636;23.198;2022-08-19T08:24:16;91977.28;;;25.57;46.98
37206;BME280;23099;42.636;23.198;2022-08-19T08:26:44;91973.09;;;25.65;44.57
37206;BME280;23099;42.636;23.198;2022-08-19T08:29:11;91969.28;;;25.71;45.50
37206;BME280;23099;42.636;23.198;2022-08-19T08:31:41;91969.44;;;25.77;45.72
37206;BME280;23099;42.636;23.198;2022-08-19T08:34:09;91965.16;;;25.85;44.94
37206;BME280;23099;42.636;23.198;2022-08-19T08:36:37;91964.88;;;25.92;43.73
37206;BME280;23099;42.636;23.198;2022-08-19T08:39:07;91964.09;;;26.01;41.59
37206;BME280;23099;42.636;23.198;2022-08-19T08:41:38;91965.91;;;26.04;41.61
37206;BME280;23099;42.636;23.198;2022-08-19T08:44:13;91962.13;;;26.11;42.10
37206;BME280;23099;42.636;23.198;2022-08-19T08:46:46;91961.47;;;26.16;41.29
37206;BME280;23099;42.636;23.198;2022-08-19T08:49:24;91964.38;;;26.21;41.15
37206;BME280;23099;42.636;23.198;2022-08-19T08:51:59;91956.47;;;26.23;40.47
37206;BME280;23099;42.636;23.198;2022-08-19T08:54:30;91959.66;;;26.31;41.42
37206;BME280;23099;42.636;23.198;2022-08-19T08:56:59;91954.63;;;26.38;40.94
37206;BME280;23099;42.636;23.198;2022-08-19T08:59:28;91955.81;;;26.47;41.12
37206;BME280;23099;42.636;23.198;2022-08-19T09:01:57;91959.00;;;26.54;41.32
37206;BME280;23099;42.636;23.198;2022-08-19T09:04:24;91950.44;;;26.61;40.97
37206;BME280;23099;42.636;23.198;2022-08-19T09:06:56;91949.63;;;26.70;40.42
37206;BME280;23099;42.636;23.198;2022-08-19T09:09:32;91951.75;;;26.75;39.87
37206;BME280;23099;42.636;23.198;2022-08-19T09:12:06;91953.88;;;26.80;40.03
37206;BME280;23099;42.636;23.198;2022-08-19T09:14:42;91952.66;;;26.81;39.70
37206;BME280;23099;42.636;23.198;2022-08-19T09:17:13;91944.38;;;26.90;39.72
37206;BME280;23099;42.636;23.198;2022-08-19T09:19:49;91949.84;;;26.99;40.00
37206;BME280;23099;42.636;23.198;2022-08-19T09:22:16;91943.09;;;27.09;39.39
37206;BME280;23099;42.636;23.198;2022-08-19T09:24:47;91946.25;;;27.17;39.10
37206;BME280;23099;42.636;23.198;2022-08-19T09:27:14;91938.16;;;27.23;37.77
37206;BME280;23099;42.636;23.198;2022-08-19T09:29:41;91942.97;;;27.28;37.27
37206;BME280;23099;42.636;23.198;2022-08-19T09:32:07;91940.94;;;27.37;38.19
37206;BME280;23099;42.636;23.198;2022-08-19T09:34:35;91935.09;;;27.44;37.75
37206;BME280;23099;42.636;23.198;2022-08-19T09:37:02;91934.75;;;27.52;39.39
37206;BME280;23099;42.636;23.198;2022-08-19T09:39:30;91932.13;;;27.57;38.55
37206;BME280;23099;42.636;23.198;2022-08-19T09:41:57;91927.22;;;27.61;37.20
37206;BME280;23099;42.636;23.198;2022-08-19T09:44:24;91936.91;;;27.71;37.09
37206;BME280;23099;42.636;23.198;2022-08-19T09:46:50;91929.06;;;27.79;38.04
37206;BME280;23099;42.636;23.198;2022-08-19T09:49:18;91927.19;;;27.85;37.73
37206;BME280;23099;42.636;23.198;2022-08-19T09:51:51;91928.94;;;27.97;37.36
37206;BME280;23099;42.636;23.198;2022-08-19T09:54:20;91923.81;;;28.05;36.52
37206;BME280;23099;42.636;23.198;2022-08-19T09:56:47;91929.19;;;28.14;36.29
37206;BME280;23099;42.636;23.198;2022-08-19T09:59:14;91922.16;;;28.22;35.53
37206;BME280;23099;42.636;23.198;2022-08-19T10:01:41;91917.00;;;28.30;36.99
37206;BME280;23099;42.636;23.198;2022-08-19T10:04:07;91921.38;;;28.36;34.40
37206;BME280;23099;42.636;23.198;2022-08-19T10:06:36;91915.78;;;28.45;34.18
37206;BME280;23099;42.636;23.198;2022-08-19T10:09:05;91917.75;;;28.60;34.43
37206;BME280;23099;42.636;23.198;2022-08-19T10:11:33;91912.16;;;28.69;34.64
37206;BME280;23099;42.636;23.198;2022-08-19T10:14:00;91914.16;;;28.83;34.71
37206;BME280;23099;42.636;23.198;2022-08-19T10:16:27;91907.88;;;28.97;33.45
37206;BME280;23099;42.636;23.198;2022-08-19T10:18:54;91908.28;;;29.10;31.70
37206;BME280;23099;42.636;23.198;2022-08-19T10:21:22;91911.06;;;29.31;31.53
37206;BME280;23099;42.636;23.198;2022-08-19T10:23:52;91916.00;;;29.41;30.91
37206;BME280;23099;42.636;23.198;2022-08-19T10:26:23;91915.31;;;29.67;33.04
37206;BME280;23099;42.636;23.198;2022-08-19T10:28:50;91908.50;;;29.88;31.36
37206;BME280;23099;42.636;23.198;2022-08-19T10:31:20;91908.44;;;30.03;32.65
37206;BME280;23099;42.636;23.198;2022-08-19T10:33:49;91908.88;;;30.21;32.87
37206;BME280;23099;42.636;23.198;2022-08-19T10:36:17;91900.78;;;30.38;29.49
37206;BME280;23099;42.636;23.198;2022-08-19T10:38:45;91907.72;;;30.54;35.05
37206;BME280;23099;42.636;23.198;2022-08-19T10:41:15;91897.81;;;30.73;33.92
37206;BME280;23099;42.636;23.198;2022-08-19T10:43:44;91899.44;;;30.85;29.99
37206;BME280;23099;42.636;23.198;2022-08-19T10:46:14;91892.00;;;31.03;27.79
37206;BME280;23099;42.636;23.198;2022-08-19T10:48:41;91897.91;;;31.16;28.45
37206;BME280;23099;42.636;23.198;2022-08-19T10:51:09;91895.03;;;31.42;31.43
37206;BME280;23099;42.636;23.198;2022-08-19T10:53:54;91897.88;;;31.64;28.70
37206;BME280;23099;42.636;23.198;2022-08-19T10:56:21;91895.47;;;31.83;29.10
37206;BME280;23099;42.636;23.198;2022-08-19T10:59:20;91896.00;;;32.04;28.67
37206;BME280;23099;42.636;23.198;2022-08-19T11:01:47;91894.84;;;32.32;27.16
37206;BME280;23099;42.636;23.198;2022-08-19T11:04:14;91889.81;;;32.48;27.30
37206;BME280;23099;42.636;23.198;2022-08-19T11:06:43;91893.34;;;32.65;27.56
37206;BME280;23099;42.636;23.198;2022-08-19T11:09:13;91888.59;;;32.82;27.03
37206;BME280;23099;42.636;23.198;2022-08-19T11:11:40;91889.34;;;32.94;26.72
37206;BME280;23099;42.636;23.198;2022-08-19T11:14:08;91880.25;;;33.10;29.61
37206;BME280;23099;42.636;23.198;2022-08-19T11:16:36;91877.50;;;33.27;26.08
37206;BME280;23099;42.636;23.198;2022-08-19T11:19:05;91887.25;;;33.45;26.92
37206;BME280;23099;42.636;23.198;2022-08-19T11:21:34;91876.91;;;33.51;24.97
37206;BME280;23099;42.636;23.198;2022-08-19T11:24:03;91883.19;;;33.51;23.92
37206;BME280;23099;42.636;23.198;2022-08-19T11:26:31;91876.84;;;33.62;25.79
37206;BME280;23099;42.636;23.198;2022-08-19T11:28:59;91880.63;;;33.64;27.98
37206;BME280;23099;42.636;23.198;2022-08-19T11:31:28;91870.03;;;33.68;27.02
37206;BME280;23099;42.636;23.198;2022-08-19T11:33:57;91874.53;;;33.83;25.47
37206;BME280;23099;42.636;23.198;2022-08-19T11:36:25;91868.47;;;33.84;28.12
37206;BME280;23099;42.636;23.198;2022-08-19T11:38:52;91870.19;;;33.98;26.73
37206;BME280;23099;42.636;23.198;2022-08-19T11:41:22;91869.94;;;33.91;24.71
37206;BME280;23099;42.636;23.198;2022-08-19T11:43:49;91864.19;;;33.89;26.64
37206;BME280;23099;42.636;23.198;2022-08-19T11:46:18;91868.09;;;34.10;27.59
37206;BME280;23099;42.636;23.198;2022-08-19T11:48:45;91872.38;;;34.11;25.69
37206;BME280;23099;42.636;23.198;2022-08-19T11:51:15;91867.56;;;34.12;25.40
37206;BME280;23099;42.636;23.198;2022-08-19T11:53:42;91866.50;;;34.20;26.87
37206;BME280;23099;42.636;23.198;2022-08-19T11:56:10;91864.22;;;34.30;26.45
37206;BME280;23099;42.636;23.198;2022-08-19T11:58:37;91860.13;;;34.36;26.05
37206;BME280;23099;42.636;23.198;2022-08-19T12:01:05;91857.88;;;34.35;25.76
37206;BME280;23099;42.636;23.198;2022-08-19T12:03:33;91860.56;;;34.46;26.55
37206;BME280;23099;42.636;23.198;2022-08-19T12:06:02;91848.78;;;34.34;25.12
37206;BME280;23099;42.636;23.198;2022-08-19T12:08:31;91845.56;;;34.30;26.57
37206;BME280;23099;42.636;23.198;2022-08-19T12:10:57;91843.72;;;34.38;26.11
37206;BME280;23099;42.636;23.198;2022-08-19T12:13:26;91840.69;;;34.36;25.22
37206;BME280;23099;42.636;23.198;2022-08-19T12:15:53;91840.66;;;34.42;25.80
37206;BME280;23099;42.636;23.198;2022-08-19T12:18:20;91842.88;;;34.49;24.96
37206;BME280;23099;42.636;23.198;2022-08-19T12:20:47;91831.16;;;34.32;25.44
37206;BME280;23099;42.636;23.198;2022-08-19T12:23:13;91827.56;;;34.37;26.52
37206;BME280;23099;42.636;23.198;2022-08-19T12:25:46;91832.31;;;34.48;26.18
37206;BME280;23099;42.636;23.198;2022-08-19T12:28:18;91822.47;;;34.47;26.03
37206;BME280;23099;42.636;23.198;2022-08-19T12:30:45;91822.91;;;34.56;26.00
37206;BME280;23099;42.636;23.198;2022-08-19T12:33:12;91822.41;;;34.52;25.56
37206;BME280;23099;42.636;23.198;2022-08-19T12:35:40;91826.44;;;34.57;25.52
37206;BME280;23099;42.636;23.198;2022-08-19T12:38:07;91822.63;;;34.60;26.21
37206;BME280;23099;42.636;23.198;2022-08-19T12:40:34;91817.84;;;34.55;25.71
37206;BME280;23099;42.636;23.198;2022-08-19T12:43:02;91817.09;;;34.54;25.44
37206;BME280;23099;42.636;23.198;2022-08-19T12:45:29;91812.88;;;34.48;25.18
37206;BME280;23099;42.636;23.198;2022-08-19T12:47:56;91816.25;;;34.35;24.56
37206;BME280;23099;42.636;23.198;2022-08-19T12:50:23;91813.84;;;34.15;25.66
37206;BME280;23099;42.636;23.198;2022-08-19T12:52:50;91809.16;;;33.98;25.29
37206;BME280;23099;42.636;23.198;2022-08-19T12:55:17;91807.16;;;33.99;25.76
37206;BME280;23099;42.636;23.198;2022-08-19T12:57:45;91802.13;;;33.92;25.33